sensor_id;sensor_type;location;lat;lon;timestamp;temperature;humidity
59309;DHT22;48433;53.016;-2.260;2023-08-07T00:00:31;12.60;99.90
59309;DHT22;48433;53.016;-2.260;2023-08-07T00:02:58;12.50;99.90
59309;DHT22;48433;53.016;-2.260;2023-08-07T00:05:26;12.40;99.90
59309;DHT22;48433;53.016;-2.260;2023-08-07T00:07:54;12.40;99.90
59309;DHT22;48433;53.016;-2.260;2023-08-07T00:10:21;12.30;99.90
59309;DHT22;48433;53.016;-2.260;2023-08-07T00:12:49;12.30;99.90
59309;DHT22;48433;53.016;-2.260;2023-08-07T00:15:17;12.20;99.90
59309;DHT22;48433;53.016;-2.260;2023-08-07T00:17:44;12.20;99.90
59309;DHT22;48433;53.016;-2.260;2023-08-07T00:20:12;12.20;99.90
59309;DHT22;48433;53.016;-2.260;2023-08-07T00:22:40;12.20;99.90
59309;DHT22;48433;53.016;-2.260;2023-08-07T00:25:08;12.10;99.90
59309;DHT22;48433;53.016;-2.260;2023-08-07T00:27:36;12.10;99.90
59309;DHT22;48433;53.016;-2.260;2023-08-07T00:30:03;12.10;99.90
59309;DHT22;48433;53.016;-2.260;2023-08-07T00:32:31;12.00;99.90
59309;DHT22;48433;53.016;-2.260;2023-08-07T00:35:00;12.00;99.90
59309;DHT22;48433;53.016;-2.260;2023-08-07T00:37:27;11.90;99.90
59309;DHT22;48433;53.016;-2.260;2023-08-07T00:39:55;11.90;99.90
59309;DHT22;48433;53.016;-2.260;2023-08-07T00:42:22;11.90;99.90
59309;DHT22;48433;53.016;-2.260;2023-08-07T00:44:50;11.90;99.90
59309;DHT22;48433;53.016;-2.260;2023-08-07T00:47:18;11.80;99.90
59309;DHT22;48433;53.016;-2.260;2023-08-07T00:49:46;11.80;99.90
59309;DHT22;48433;53.016;-2.260;2023-08-07T00:52:14;11.80;99.90
59309;DHT22;48433;53.016;-2.260;2023-08-07T00:54:45;11.70;99.90
59309;DHT22;48433;53.016;-2.260;2023-08-07T00:57:14;11.70;99.90
59309;DHT22;48433;53.016;-2.260;2023-08-07T00:59:42;11.70;99.90
59309;DHT22;48433;53.016;-2.260;2023-08-07T01:02:12;11.70;99.90
59309;DHT22;48433;53.016;-2.260;2023-08-07T01:04:41;11.70;99.90
59309;DHT22;48433;53.016;-2.260;2023-08-07T01:07:08;11.60;99.90
59309;DHT22;48433;53.016;-2.260;2023-08-07T01:09:36;11.60;99.90
59309;DHT22;48433;53.016;-2.260;2023-08-07T01:15:03;11.60;99.90
59309;DHT22;48433;53.016;-2.260;2023-08-07T01:17:35;11.50;99.90
59309;DHT22;48433;53.016;-2.260;2023-08-07T01:20:04;11.50;99.90
59309;DHT22;48433;53.016;-2.260;2023-08-07T01:22:32;11.50;99.90
59309;DHT22;48433;53.016;-2.260;2023-08-07T01:24:59;11.50;99.90
59309;DHT22;48433;53.016;-2.260;2023-08-07T01:27:32;11.40;99.90
59309;DHT22;48433;53.016;-2.260;2023-08-07T01:30:07;11.40;99.90
59309;DHT22;48433;53.016;-2.260;2023-08-07T01:35:27;11.40;99.90
59309;DHT22;48433;53.016;-2.260;2023-08-07T01:37:57;11.30;99.90
59309;DHT22;48433;53.016;-2.260;2023-08-07T01:40:26;11.30;99.90
59309;DHT22;48433;53.016;-2.260;2023-08-07T01:42:54;11.30;99.90
59309;DHT22;48433;53.016;-2.260;2023-08-07T01:45:26;11.30;99.90
59309;DHT22;48433;53.016;-2.260;2023-08-07T01:47:55;11.30;99.90
59309;DHT22;48433;53.016;-2.260;2023-08-07T01:50:23;11.30;99.90
59309;DHT22;48433;53.016;-2.260;2023-08-07T01:52:52;11.30;99.90
59309;DHT22;48433;53.016;-2.260;2023-08-07T01:55:21;11.30;99.90
59309;DHT22;48433;53.016;-2.260;2023-08-07T01:57:51;11.30;99.90
59309;DHT22;48433;53.016;-2.260;2023-08-07T02:00:20;11.40;99.90
59309;DHT22;48433;53.016;-2.260;2023-08-07T02:02:48;11.40;99.90
59309;DHT22;48433;53.016;-2.260;2023-08-07T02:05:15;11.40;99.90
59309;DHT22;48433;53.016;-2.260;2023-08-07T02:07:44;11.40;99.90
59309;DHT22;48433;53.016;-2.260;2023-08-07T02:10:12;11.50;99.90
59309;DHT22;48433;53.016;-2.260;2023-08-07T02:12:40;11.40;99.90
59309;DHT22;48433;53.016;-2.260;2023-08-07T02:15:08;11.50;99.90
59309;DHT22;48433;53.016;-2.260;2023-08-07T02:17:35;11.40;99.90
59309;DHT22;48433;53.016;-2.260;2023-08-07T02:20:06;11.40;99.90
59309;DHT22;48433;53.016;-2.260;2023-08-07T02:22:34;11.40;99.90
59309;DHT22;48433;53.016;-2.260;2023-08-07T02:25:02;11.40;99.90
59309;DHT22;48433;53.016;-2.260;2023-08-07T02:27:30;11.30;99.90
59309;DHT22;48433;53.016;-2.260;2023-08-07T02:29:57;11.30;99.90
59309;DHT22;48433;53.016;-2.260;2023-08-07T02:32:25;11.30;99.90
59309;DHT22;48433;53.016;-2.260;2023-08-07T02:34:54;11.30;99.90
59309;DHT22;48433;53.016;-2.260;2023-08-07T02:37:24;11.30;99.90
59309;DHT22;48433;53.016;-2.260;2023-08-07T02:39:51;11.40;99.90
59309;DHT22;48433;53.016;-2.260;2023-08-07T02:42:20;11.30;99.90
59309;DHT22;48433;53.016;-2.260;2023-08-07T02:44:48;11.30;99.90
59309;DHT22;48433;53.016;-2.260;2023-08-07T02:47:16;11.30;99.90
59309;DHT22;48433;53.016;-2.260;2023-08-07T02:49:43;11.30;99.90
59309;DHT22;48433;53.016;-2.260;2023-08-07T02:52:11;11.30;99.90
59309;DHT22;48433;53.016;-2.260;2023-08-07T02:54:38;11.20;99.90
59309;DHT22;48433;53.016;-2.260;2023-08-07T02:57:06;11.20;99.90
59309;DHT22;48433;53.016;-2.260;2023-08-07T02:59:34;11.20;99.90
59309;DHT22;48433;53.016;-2.260;2023-08-07T03:02:01;11.20;99.90
59309;DHT22;48433;53.016;-2.260;2023-08-07T03:04:29;11.20;99.90
59309;DHT22;48433;53.016;-2.260;2023-08-07T03:06:57;11.10;99.90
59309;DHT22;48433;53.016;-2.260;2023-08-07T03:09:26;11.10;99.90
59309;DHT22;48433;53.016;-2.260;2023-08-07T03:11:53;11.10;99.90
59309;DHT22;48433;53.016;-2.260;2023-08-07T03:14:21;11.10;99.90
59309;DHT22;48433;53.016;-2.260;2023-08-07T03:16:49;11.10;99.90
59309;DHT22;48433;53.016;-2.260;2023-08-07T03:19:16;11.10;99.90
59309;DHT22;48433;53.016;-2.260;2023-08-07T03:21:44;11.10;99.90
59309;DHT22;48433;53.016;-2.260;2023-08-07T03:24:12;11.20;99.90
59309;DHT22;48433;53.016;-2.260;2023-08-07T03:26:40;11.30;99.90
59309;DHT22;48433;53.016;-2.260;2023-08-07T03:29:08;11.30;99.90
59309;DHT22;48433;53.016;-2.260;2023-08-07T03:31:37;11.40;99.90
59309;DHT22;48433;53.016;-2.260;2023-08-07T03:34:05;11.40;99.90
59309;DHT22;48433;53.016;-2.260;2023-08-07T03:36:33;11.40;99.90
59309;DHT22;48433;53.016;-2.260;2023-08-07T03:39:01;11.50;99.90
59309;DHT22;48433;53.016;-2.260;2023-08-07T03:41:28;11.50;99.90
59309;DHT22;48433;53.016;-2.260;2023-08-07T03:43:57;11.50;99.90
59309;DHT22;48433;53.016;-2.260;2023-08-07T03:46:25;11.60;99.90
59309;DHT22;48433;53.016;-2.260;2023-08-07T03:48:53;11.60;99.90
59309;DHT22;48433;53.016;-2.260;2023-08-07T03:51:21;11.60;99.90
59309;DHT22;48433;53.016;-2.260;2023-08-07T03:53:52;11.70;99.90
59309;DHT22;48433;53.016;-2.260;2023-08-07T03:56:20;11.70;99.90
59309;DHT22;48433;53.016;-2.260;2023-08-07T03:58:48;11.70;99.90
59309;DHT22;48433;53.016;-2.260;2023-08-07T04:01:18;11.80;99.90
59309;DHT22;48433;53.016;-2.260;2023-08-07T04:03:49;11.70;99.90
59309;DHT22;48433;53.016;-2.260;2023-08-07T04:06:17;11.70;99.90
59309;DHT22;48433;53.016;-2.260;2023-08-07T04:08:48;11.70;99.90
59309;DHT22;48433;53.016;-2.260;2023-08-07T04:11:16;11.70;99.90
59309;DHT22;48433;53.016;-2.260;2023-08-07T04:13:44;11.60;99.90
59309;DHT22;48433;53.016;-2.260;2023-08-07T04:16:12;11.60;99.90
59309;DHT22;48433;53.016;-2.260;2023-08-07T04:18:39;11.50;99.90
59309;DHT22;48433;53.016;-2.260;2023-08-07T04:21:07;11.50;99.90
59309;DHT22;48433;53.016;-2.260;2023-08-07T04:23:35;11.40;99.90
59309;DHT22;48433;53.016;-2.260;2023-08-07T04:26:03;11.30;99.90
59309;DHT22;48433;53.016;-2.260;2023-08-07T04:28:30;11.30;99.90
59309;DHT22;48433;53.016;-2.260;2023-08-07T04:30:58;11.20;99.90
59309;DHT22;48433;53.016;-2.260;2023-08-07T04:33:26;11.20;99.90
59309;DHT22;48433;53.016;-2.260;2023-08-07T04:35:53;11.10;99.90
59309;DHT22;48433;53.016;-2.260;2023-08-07T04:38:21;11.10;99.90
59309;DHT22;48433;53.016;-2.260;2023-08-07T04:40:50;11.10;99.90
59309;DHT22;48433;53.016;-2.260;2023-08-07T04:43:18;11.10;99.90
59309;DHT22;48433;53.016;-2.260;2023-08-07T04:45:49;11.10;99.90
59309;DHT22;48433;53.016;-2.260;2023-08-07T04:48:16;11.10;99.90
59309;DHT22;48433;53.016;-2.260;2023-08-07T04:50:45;11.10;99.90
59309;DHT22;48433;53.016;-2.260;2023-08-07T04:53:13;11.10;99.90
59309;DHT22;48433;53.016;-2.260;2023-08-07T04:55:40;11.10;99.90
59309;DHT22;48433;53.016;-2.260;2023-08-07T04:58:08;11.10;99.90
59309;DHT22;48433;53.016;-2.260;2023-08-07T05:00:36;11.10;99.90
59309;DHT22;48433;53.016;-2.260;2023-08-07T05:03:04;11.10;99.90
59309;DHT22;48433;53.016;-2.260;2023-08-07T05:05:32;11.10;99.90
59309;DHT22;48433;53.016;-2.260;2023-08-07T05:07:59;11.10;99.90
59309;DHT22;48433;53.016;-2.260;2023-08-07T05:10:27;11.10;99.90
59309;DHT22;48433;53.016;-2.260;2023-08-07T05:12:55;11.10;99.90
59309;DHT22;48433;53.016;-2.260;2023-08-07T05:15:24;11.10;99.90
59309;DHT22;48433;53.016;-2.260;2023-08-07T05:17:52;11.10;99.90
59309;DHT22;48433;53.016;-2.260;2023-08-07T05:20:20;11.10;99.90
59309;DHT22;48433;53.016;-2.260;2023-08-07T05:22:47;11.10;99.90
59309;DHT22;48433;53.016;-2.260;2023-08-07T05:25:16;11.10;99.90
59309;DHT22;48433;53.016;-2.260;2023-08-07T05:27:45;11.10;99.90
59309;DHT22;48433;53.016;-2.260;2023-08-07T05:30:14;11.20;99.90
59309;DHT22;48433;53.016;-2.260;2023-08-07T05:32:42;11.20;99.90
59309;DHT22;48433;53.016;-2.260;2023-08-07T05:35:10;11.20;99.90
59309;DHT22;48433;53.016;-2.260;2023-08-07T05:37:38;11.20;99.90
59309;DHT22;48433;53.016;-2.260;2023-08-07T05:40:06;11.30;99.90
59309;DHT22;48433;53.016;-2.260;2023-08-07T05:42:34;11.30;99.90
59309;DHT22;48433;53.016;-2.260;2023-08-07T05:45:03;11.40;99.90
59309;DHT22;48433;53.016;-2.260;2023-08-07T05:47:32;11.50;99.90
59309;DHT22;48433;53.016;-2.260;2023-08-07T05:50:00;11.50;99.90
59309;DHT22;48433;53.016;-2.260;2023-08-07T05:52:28;11.50;99.90
59309;DHT22;48433;53.016;-2.260;2023-08-07T05:54:56;11.60;99.90
59309;DHT22;48433;53.016;-2.260;2023-08-07T05:57:24;11.70;99.90
59309;DHT22;48433;53.016;-2.260;2023-08-07T05:59:51;11.70;99.90
59309;DHT22;48433;53.016;-2.260;2023-08-07T06:02:19;11.90;99.90
59309;DHT22;48433;53.016;-2.260;2023-08-07T06:04:47;11.80;99.90
59309;DHT22;48433;53.016;-2.260;2023-08-07T06:07:15;12.00;99.90
59309;DHT22;48433;53.016;-2.260;2023-08-07T06:09:43;12.10;99.90
59309;DHT22;48433;53.016;-2.260;2023-08-07T06:12:11;12.10;99.90
59309;DHT22;48433;53.016;-2.260;2023-08-07T06:14:38;12.30;99.90
59309;DHT22;48433;53.016;-2.260;2023-08-07T06:17:06;12.40;99.90
59309;DHT22;48433;53.016;-2.260;2023-08-07T06:19:34;12.40;99.90
59309;DHT22;48433;53.016;-2.260;2023-08-07T06:22:01;12.40;99.90
59309;DHT22;48433;53.016;-2.260;2023-08-07T06:24:29;12.60;99.90
59309;DHT22;48433;53.016;-2.260;2023-08-07T06:26:57;12.80;99.90
59309;DHT22;48433;53.016;-2.260;2023-08-07T06:29:24;12.70;99.90
59309;DHT22;48433;53.016;-2.260;2023-08-07T06:31:52;12.90;99.90
59309;DHT22;48433;53.016;-2.260;2023-08-07T06:34:19;13.10;99.90
59309;DHT22;48433;53.016;-2.260;2023-08-07T06:36:47;13.30;99.90
59309;DHT22;48433;53.016;-2.260;2023-08-07T06:39:15;13.50;99.90
59309;DHT22;48433;53.016;-2.260;2023-08-07T06:41:42;13.70;99.90
59309;DHT22;48433;53.016;-2.260;2023-08-07T06:44:12;13.80;99.90
59309;DHT22;48433;53.016;-2.260;2023-08-07T06:46:40;13.80;99.90
59309;DHT22;48433;53.016;-2.260;2023-08-07T06:49:07;13.80;99.90
59309;DHT22;48433;53.016;-2.260;2023-08-07T06:51:35;13.80;99.90
59309;DHT22;48433;53.016;-2.260;2023-08-07T06:54:03;13.80;99.90
59309;DHT22;48433;53.016;-2.260;2023-08-07T06:56:31;13.80;99.90
59309;DHT22;48433;53.016;-2.260;2023-08-07T06:58:59;13.70;99.90
59309;DHT22;48433;53.016;-2.260;2023-08-07T07:01:26;13.60;99.90
59309;DHT22;48433;53.016;-2.260;2023-08-07T07:03:54;13.60;99.90
59309;DHT22;48433;53.016;-2.260;2023-08-07T07:06:22;13.60;99.90
59309;DHT22;48433;53.016;-2.260;2023-08-07T07:08:52;13.60;99.90
59309;DHT22;48433;53.016;-2.260;2023-08-07T07:11:23;13.70;99.90
59309;DHT22;48433;53.016;-2.260;2023-08-07T07:13:52;13.80;99.90
59309;DHT22;48433;53.016;-2.260;2023-08-07T07:16:20;13.90;99.90
59309;DHT22;48433;53.016;-2.260;2023-08-07T07:18:51;14.10;99.90
59309;DHT22;48433;53.016;-2.260;2023-08-07T07:21:19;14.10;99.90
59309;DHT22;48433;53.016;-2.260;2023-08-07T07:23:47;14.30;99.90
59309;DHT22;48433;53.016;-2.260;2023-08-07T07:26:15;14.40;99.90
59309;DHT22;48433;53.016;-2.260;2023-08-07T07:28:42;14.50;99.90
59309;DHT22;48433;53.016;-2.260;2023-08-07T07:31:10;14.50;99.90
59309;DHT22;48433;53.016;-2.260;2023-08-07T07:33:39;14.50;99.90
59309;DHT22;48433;53.016;-2.260;2023-08-07T07:36:15;14.70;99.90
59309;DHT22;48433;53.016;-2.260;2023-08-07T07:38:43;14.80;99.90
59309;DHT22;48433;53.016;-2.260;2023-08-07T07:41:14;14.80;99.90
59309;DHT22;48433;53.016;-2.260;2023-08-07T07:43:42;15.00;99.90
59309;DHT22;48433;53.016;-2.260;2023-08-07T07:46:10;15.20;99.90
59309;DHT22;48433;53.016;-2.260;2023-08-07T07:48:38;15.40;99.90
59309;DHT22;48433;53.016;-2.260;2023-08-07T07:51:06;15.50;99.90
59309;DHT22;48433;53.016;-2.260;2023-08-07T07:53:33;15.70;99.90
59309;DHT22;48433;53.016;-2.260;2023-08-07T07:56:01;15.80;99.90
59309;DHT22;48433;53.016;-2.260;2023-08-07T07:58:29;16.10;99.90
59309;DHT22;48433;53.016;-2.260;2023-08-07T08:00:56;16.20;99.90
59309;DHT22;48433;53.016;-2.260;2023-08-07T08:03:24;16.50;99.90
59309;DHT22;48433;53.016;-2.260;2023-08-07T08:05:52;16.60;99.90
59309;DHT22;48433;53.016;-2.260;2023-08-07T08:08:19;16.70;99.90
59309;DHT22;48433;53.016;-2.260;2023-08-07T08:10:47;16.80;99.90
59309;DHT22;48433;53.016;-2.260;2023-08-07T08:13:15;17.00;99.90
59309;DHT22;48433;53.016;-2.260;2023-08-07T08:15:44;17.10;99.90
59309;DHT22;48433;53.016;-2.260;2023-08-07T08:18:12;17.10;99.90
59309;DHT22;48433;53.016;-2.260;2023-08-07T08:20:40;17.10;99.90
59309;DHT22;48433;53.016;-2.260;2023-08-07T08:23:07;17.20;99.90
59309;DHT22;48433;53.016;-2.260;2023-08-07T08:25:36;17.20;99.90
59309;DHT22;48433;53.016;-2.260;2023-08-07T08:28:04;17.10;99.90
59309;DHT22;48433;53.016;-2.260;2023-08-07T08:30:32;17.10;99.90
59309;DHT22;48433;53.016;-2.260;2023-08-07T08:32:59;17.00;99.90
59309;DHT22;48433;53.016;-2.260;2023-08-07T08:35:27;17.00;99.90
59309;DHT22;48433;53.016;-2.260;2023-08-07T08:37:55;17.30;99.90
59309;DHT22;48433;53.016;-2.260;2023-08-07T08:40:23;17.30;99.90
59309;DHT22;48433;53.016;-2.260;2023-08-07T08:42:51;17.40;99.90
59309;DHT22;48433;53.016;-2.260;2023-08-07T08:45:21;17.50;99.90
59309;DHT22;48433;53.016;-2.260;2023-08-07T08:47:51;17.90;99.90
59309;DHT22;48433;53.016;-2.260;2023-08-07T08:50:22;18.00;99.90
59309;DHT22;48433;53.016;-2.260;2023-08-07T08:52:51;18.20;99.90
59309;DHT22;48433;53.016;-2.260;2023-08-07T08:55:20;16.80;99.90
59309;DHT22;48433;53.016;-2.260;2023-08-07T08:57:49;18.30;99.90
59309;DHT22;48433;53.016;-2.260;2023-08-07T09:00:18;18.30;99.90
59309;DHT22;48433;53.016;-2.260;2023-08-07T09:02:49;18.40;99.90
59309;DHT22;48433;53.016;-2.260;2023-08-07T09:05:20;18.40;99.90
59309;DHT22;48433;53.016;-2.260;2023-08-07T09:07:48;18.30;99.90
59309;DHT22;48433;53.016;-2.260;2023-08-07T09:10:16;18.30;99.90
59309;DHT22;48433;53.016;-2.260;2023-08-07T09:13:00;18.20;99.90
59309;DHT22;48433;53.016;-2.260;2023-08-07T09:15:29;18.10;99.90
59309;DHT22;48433;53.016;-2.260;2023-08-07T09:17:58;17.90;99.90
59309;DHT22;48433;53.016;-2.260;2023-08-07T09:20:27;17.80;99.90
59309;DHT22;48433;53.016;-2.260;2023-08-07T09:22:55;17.70;99.90
59309;DHT22;48433;53.016;-2.260;2023-08-07T09:25:29;17.60;99.90
59309;DHT22;48433;53.016;-2.260;2023-08-07T09:27:57;18.00;99.90
59309;DHT22;48433;53.016;-2.260;2023-08-07T09:30:29;18.20;99.90
59309;DHT22;48433;53.016;-2.260;2023-08-07T09:32:58;18.50;99.90
59309;DHT22;48433;53.016;-2.260;2023-08-07T09:35:26;18.70;99.90
59309;DHT22;48433;53.016;-2.260;2023-08-07T09:37:54;19.30;99.90
59309;DHT22;48433;53.016;-2.260;2023-08-07T09:40:22;19.40;99.90
59309;DHT22;48433;53.016;-2.260;2023-08-07T09:42:51;19.70;99.90
59309;DHT22;48433;53.016;-2.260;2023-08-07T09:45:27;19.80;99.90
59309;DHT22;48433;53.016;-2.260;2023-08-07T09:48:03;20.10;99.90
59309;DHT22;48433;53.016;-2.260;2023-08-07T09:50:31;20.30;99.90
59309;DHT22;48433;53.016;-2.260;2023-08-07T09:52:59;20.50;99.90
59309;DHT22;48433;53.016;-2.260;2023-08-07T09:55:27;20.80;99.90
59309;DHT22;48433;53.016;-2.260;2023-08-07T09:57:55;20.90;99.90
59309;DHT22;48433;53.016;-2.260;2023-08-07T10:00:22;20.80;99.90
59309;DHT22;48433;53.016;-2.260;2023-08-07T10:02:51;20.80;99.90
59309;DHT22;48433;53.016;-2.260;2023-08-07T10:05:19;20.80;99.90
59309;DHT22;48433;53.016;-2.260;2023-08-07T10:07:47;20.30;99.90
59309;DHT22;48433;53.016;-2.260;2023-08-07T10:10:15;20.30;99.90
59309;DHT22;48433;53.016;-2.260;2023-08-07T10:12:43;20.10;99.90
59309;DHT22;48433;53.016;-2.260;2023-08-07T10:15:15;20.10;99.90
59309;DHT22;48433;53.016;-2.260;2023-08-07T10:17:43;20.40;99.90
59309;DHT22;48433;53.016;-2.260;2023-08-07T10:20:12;20.40;99.90
59309;DHT22;48433;53.016;-2.260;2023-08-07T10:22:41;20.60;99.90
59309;DHT22;48433;53.016;-2.260;2023-08-07T10:25:10;20.70;99.90
59309;DHT22;48433;53.016;-2.260;2023-08-07T10:27:40;20.80;98.50
59309;DHT22;48433;53.016;-2.260;2023-08-07T10:30:10;20.80;98.50
59309;DHT22;48433;53.016;-2.260;2023-08-07T10:32:43;20.70;98.70
59309;DHT22;48433;53.016;-2.260;2023-08-07T10:35:29;20.80;98.90
59309;DHT22;48433;53.016;-2.260;2023-08-07T10:38:07;20.60;98.00
59309;DHT22;48433;53.016;-2.260;2023-08-07T10:41:13;20.60;98.60
59309;DHT22;48433;53.016;-2.260;2023-08-07T10:43:43;20.40;99.00
59309;DHT22;48433;53.016;-2.260;2023-08-07T10:46:12;20.40;99.10
59309;DHT22;48433;53.016;-2.260;2023-08-07T10:48:47;20.80;99.10
59309;DHT22;48433;53.016;-2.260;2023-08-07T10:51:19;21.40;99.70
59309;DHT22;48433;53.016;-2.260;2023-08-07T10:53:49;22.30;98.90
59309;DHT22;48433;53.016;-2.260;2023-08-07T10:56:39;22.50;96.70
59309;DHT22;48433;53.016;-2.260;2023-08-07T10:59:10;22.10;96.00
59309;DHT22;48433;53.016;-2.260;2023-08-07T11:04:09;22.20;96.30
59309;DHT22;48433;53.016;-2.260;2023-08-07T11:06:38;22.60;95.80
59309;DHT22;48433;53.016;-2.260;2023-08-07T11:09:08;23.00;94.40
59309;DHT22;48433;53.016;-2.260;2023-08-07T11:11:46;23.00;94.70
59309;DHT22;48433;53.016;-2.260;2023-08-07T11:14:16;22.80;94.60
59309;DHT22;48433;53.016;-2.260;2023-08-07T11:16:45;22.70;95.20
59309;DHT22;48433;53.016;-2.260;2023-08-07T11:19:14;22.30;94.90
59309;DHT22;48433;53.016;-2.260;2023-08-07T11:21:42;22.00;94.90
59309;DHT22;48433;53.016;-2.260;2023-08-07T11:24:13;21.60;95.40
59309;DHT22;48433;53.016;-2.260;2023-08-07T11:26:44;21.30;95.90
59309;DHT22;48433;53.016;-2.260;2023-08-07T11:29:17;21.10;95.90
59309;DHT22;48433;53.016;-2.260;2023-08-07T11:31:45;21.20;96.20
59309;DHT22;48433;53.016;-2.260;2023-08-07T11:34:13;21.80;96.30
59309;DHT22;48433;53.016;-2.260;2023-08-07T11:36:42;22.30;94.60
59309;DHT22;48433;53.016;-2.260;2023-08-07T11:39:10;22.40;93.40
59309;DHT22;48433;53.016;-2.260;2023-08-07T11:41:38;22.40;93.30
59309;DHT22;48433;53.016;-2.260;2023-08-07T11:44:09;22.40;93.20
59309;DHT22;48433;53.016;-2.260;2023-08-07T11:46:37;22.30;92.80
59309;DHT22;48433;53.016;-2.260;2023-08-07T11:49:04;22.20;92.10
59309;DHT22;48433;53.016;-2.260;2023-08-07T11:51:33;22.00;92.00
59309;DHT22;48433;53.016;-2.260;2023-08-07T11:54:01;21.80;91.80
59309;DHT22;48433;53.016;-2.260;2023-08-07T11:56:29;21.60;91.80
59309;DHT22;48433;53.016;-2.260;2023-08-07T11:58:57;21.50;93.30
59309;DHT22;48433;53.016;-2.260;2023-08-07T12:01:26;21.60;94.00
59309;DHT22;48433;53.016;-2.260;2023-08-07T12:06:37;22.20;93.40
59309;DHT22;48433;53.016;-2.260;2023-08-07T12:09:11;22.40;93.00
59309;DHT22;48433;53.016;-2.260;2023-08-07T12:11:40;22.60;93.60
59309;DHT22;48433;53.016;-2.260;2023-08-07T12:14:08;23.00;93.50
59309;DHT22;48433;53.016;-2.260;2023-08-07T12:16:35;23.20;92.60
59309;DHT22;48433;53.016;-2.260;2023-08-07T12:19:03;23.00;92.30
59309;DHT22;48433;53.016;-2.260;2023-08-07T12:21:31;22.80;92.80
59309;DHT22;48433;53.016;-2.260;2023-08-07T12:24:01;22.40;92.80
59309;DHT22;48433;53.016;-2.260;2023-08-07T12:26:28;21.80;92.80
59309;DHT22;48433;53.016;-2.260;2023-08-07T12:28:56;21.40;93.50
59309;DHT22;48433;53.016;-2.260;2023-08-07T12:31:23;21.20;94.10
59309;DHT22;48433;53.016;-2.260;2023-08-07T12:33:51;21.20;94.00
59309;DHT22;48433;53.016;-2.260;2023-08-07T12:36:20;21.20;93.80
59309;DHT22;48433;53.016;-2.260;2023-08-07T12:38:48;21.30;92.80
59309;DHT22;48433;53.016;-2.260;2023-08-07T12:41:16;21.40;93.20
59309;DHT22;48433;53.016;-2.260;2023-08-07T12:43:46;21.70;92.70
59309;DHT22;48433;53.016;-2.260;2023-08-07T12:46:14;21.70;92.40
59309;DHT22;48433;53.016;-2.260;2023-08-07T12:48:44;21.60;92.50
59309;DHT22;48433;53.016;-2.260;2023-08-07T12:51:12;21.60;93.00
59309;DHT22;48433;53.016;-2.260;2023-08-07T12:53:40;21.60;93.30
59309;DHT22;48433;53.016;-2.260;2023-08-07T12:56:08;21.60;93.40
59309;DHT22;48433;53.016;-2.260;2023-08-07T12:58:35;21.60;93.30
59309;DHT22;48433;53.016;-2.260;2023-08-07T13:01:04;21.50;93.50
59309;DHT22;48433;53.016;-2.260;2023-08-07T13:03:31;21.40;93.80
59309;DHT22;48433;53.016;-2.260;2023-08-07T13:06:00;21.20;93.80
59309;DHT22;48433;53.016;-2.260;2023-08-07T13:08:28;21.20;93.50
59309;DHT22;48433;53.016;-2.260;2023-08-07T13:10:55;21.30;93.90
59309;DHT22;48433;53.016;-2.260;2023-08-07T13:13:23;21.30;93.80
59309;DHT22;48433;53.016;-2.260;2023-08-07T13:15:50;21.20;93.80
59309;DHT22;48433;53.016;-2.260;2023-08-07T13:18:22;21.00;93.90
59309;DHT22;48433;53.016;-2.260;2023-08-07T13:20:49;20.90;94.20
59309;DHT22;48433;53.016;-2.260;2023-08-07T13:23:17;20.70;94.20
59309;DHT22;48433;53.016;-2.260;2023-08-07T13:25:44;20.60;94.20
59309;DHT22;48433;53.016;-2.260;2023-08-07T13:28:12;20.40;94.30
59309;DHT22;48433;53.016;-2.260;2023-08-07T13:30:40;20.40;94.70
59309;DHT22;48433;53.016;-2.260;2023-08-07T13:33:08;20.40;95.30
59309;DHT22;48433;53.016;-2.260;2023-08-07T13:35:36;20.70;94.80
59309;DHT22;48433;53.016;-2.260;2023-08-07T13:38:05;21.00;93.40
59309;DHT22;48433;53.016;-2.260;2023-08-07T13:40:35;21.00;93.70
59309;DHT22;48433;53.016;-2.260;2023-08-07T13:43:02;20.90;93.60
59309;DHT22;48433;53.016;-2.260;2023-08-07T13:45:36;20.70;93.80
59309;DHT22;48433;53.016;-2.260;2023-08-07T13:48:04;20.30;93.70
59309;DHT22;48433;53.016;-2.260;2023-08-07T13:50:34;20.20;94.10
59309;DHT22;48433;53.016;-2.260;2023-08-07T13:53:01;20.10;94.20
59309;DHT22;48433;53.016;-2.260;2023-08-07T13:55:42;20.10;94.40
59309;DHT22;48433;53.016;-2.260;2023-08-07T13:58:10;20.50;94.30
59309;DHT22;48433;53.016;-2.260;2023-08-07T14:00:38;20.60;94.50
59309;DHT22;48433;53.016;-2.260;2023-08-07T14:03:09;20.90;93.90
59309;DHT22;48433;53.016;-2.260;2023-08-07T14:05:37;21.10;93.60
59309;DHT22;48433;53.016;-2.260;2023-08-07T14:08:05;21.10;92.70
59309;DHT22;48433;53.016;-2.260;2023-08-07T14:10:33;21.10;93.10
59309;DHT22;48433;53.016;-2.260;2023-08-07T14:13:01;21.10;93.00
59309;DHT22;48433;53.016;-2.260;2023-08-07T14:15:28;21.00;92.90
59309;DHT22;48433;53.016;-2.260;2023-08-07T14:17:56;20.80;92.40
59309;DHT22;48433;53.016;-2.260;2023-08-07T14:20:25;20.80;92.80
59309;DHT22;48433;53.016;-2.260;2023-08-07T14:22:53;20.80;92.90
59309;DHT22;48433;53.016;-2.260;2023-08-07T14:25:35;20.90;93.00
59309;DHT22;48433;53.016;-2.260;2023-08-07T14:28:04;21.10;92.10
59309;DHT22;48433;53.016;-2.260;2023-08-07T14:30:31;21.10;92.50
59309;DHT22;48433;53.016;-2.260;2023-08-07T14:32:59;21.30;92.80
59309;DHT22;48433;53.016;-2.260;2023-08-07T14:35:27;21.30;92.50
59309;DHT22;48433;53.016;-2.260;2023-08-07T14:37:54;21.70;92.20
59309;DHT22;48433;53.016;-2.260;2023-08-07T14:40:22;21.80;92.70
59309;DHT22;48433;53.016;-2.260;2023-08-07T14:42:49;22.40;91.80
59309;DHT22;48433;53.016;-2.260;2023-08-07T14:45:17;23.10;91.20
59309;DHT22;48433;53.016;-2.260;2023-08-07T14:47:48;24.40;88.00
59309;DHT22;48433;53.016;-2.260;2023-08-07T14:50:16;24.40;88.60
59309;DHT22;48433;53.016;-2.260;2023-08-07T14:52:43;24.80;86.90
59309;DHT22;48433;53.016;-2.260;2023-08-07T14:55:11;24.60;84.90
59309;DHT22;48433;53.016;-2.260;2023-08-07T14:57:39;23.80;85.70
59309;DHT22;48433;53.016;-2.260;2023-08-07T15:00:07;23.80;86.50
59309;DHT22;48433;53.016;-2.260;2023-08-07T15:02:36;23.50;86.50
59309;DHT22;48433;53.016;-2.260;2023-08-07T15:05:04;23.30;87.40
59309;DHT22;48433;53.016;-2.260;2023-08-07T15:07:31;23.40;87.20
59309;DHT22;48433;53.016;-2.260;2023-08-07T15:09:59;23.30;87.80
59309;DHT22;48433;53.016;-2.260;2023-08-07T15:12:27;23.40;87.00
59309;DHT22;48433;53.016;-2.260;2023-08-07T15:14:54;23.30;87.10
59309;DHT22;48433;53.016;-2.260;2023-08-07T15:17:22;23.10;87.10
59309;DHT22;48433;53.016;-2.260;2023-08-07T15:19:50;22.80;86.40
59309;DHT22;48433;53.016;-2.260;2023-08-07T15:22:17;22.50;88.00
59309;DHT22;48433;53.016;-2.260;2023-08-07T15:24:45;22.10;87.80
59309;DHT22;48433;53.016;-2.260;2023-08-07T15:27:13;21.80;89.10
59309;DHT22;48433;53.016;-2.260;2023-08-07T15:29:44;21.50;89.30
59309;DHT22;48433;53.016;-2.260;2023-08-07T15:32:13;21.40;90.30
59309;DHT22;48433;53.016;-2.260;2023-08-07T15:34:41;21.60;91.00